Time;durP1;ratioP1;P1;durP2;ratioP2;P2;SDS_P1;SDS_P2;PMS_P1;PMS_P2;Temp;Humidity;BMP_temperature;BMP_pressure;BME280_temperature;BME280_humidity;BME280_pressure;Samples;Min_cycle;Max_cycle;Signal;HPM_P1;HPM_P2
2022/06/27 00:01:12;;;;;;;8.98;7.65;;;;;;;;;;5033458;28;20120;-76
2022/06/27 00:03:38;;;;;;;10.82;7.90;;;;;;;;;;5033592;28;20049;-76
2022/06/27 00:06:04;;;;;;;11.73;7.68;;;;;;;;;;5033452;28;20404;-76
2022/06/27 00:08:30;;;;;;;8.27;7.28;;;;;;;;;;5032187;28;20119;-76
2022/06/27 00:10:56;;;;;;;8.48;7.57;;;;;;;;;;5015819;28;20469;-76
2022/06/27 00:13:22;;;;;;;11.75;8.80;;;;;;;;;;5031912;28;20523;-76
2022/06/27 00:15:48;;;;;;;10.48;9.30;;;;;;;;;;5015652;28;20404;-76
2022/06/27 00:18:14;;;;;;;9.80;8.20;;;;;;;;;;5033312;28;20041;-76
2022/06/27 00:20:40;;;;;;;12.07;9.18;;;;;;;;;;5015720;28;20065;-76
2022/06/27 00:23:06;;;;;;;9.77;8.70;;;;;;;;;;5039591;28;20042;-76
2022/06/27 00:25:32;;;;;;;12.00;9.63;;;;;;;;;;5052361;28;20476;-76
2022/06/27 00:27:58;;;;;;;11.43;8.30;;;;;;;;;;5052050;28;20114;-76
2022/06/27 00:30:24;;;;;;;10.40;9.00;;;;;;;;;;5053850;28;20135;-76
2022/06/27 00:32:50;;;;;;;12.95;8.45;;;;;;;;;;5015742;28;20064;-76
2022/06/27 00:35:16;;;;;;;15.27;11.93;;;;;;;;;;5019582;28;20063;-76
2022/06/27 00:37:42;;;;;;;12.55;10.75;;;;;;;;;;5035747;28;20052;-76
2022/06/27 00:40:09;;;;;;;13.63;11.63;;;;;;;;;;5054308;28;20041;-76
2022/06/27 00:42:35;;;;;;;14.35;12.13;;;;;;;;;;5038074;28;20049;-76
2022/06/27 00:45:01;;;;;;;14.80;11.73;;;;;;;;;;5056175;28;20044;-76
2022/06/27 00:47:27;;;;;;;13.80;10.20;;;;;;;;;;5038180;28;20041;-76
2022/06/27 00:49:53;;;;;;;13.15;9.35;;;;;;;;;;5038112;28;20128;-76
2022/06/27 00:52:20;;;;;;;11.23;10.00;;;;;;;;;;5038248;28;20088;-76
2022/06/27 00:54:47;;;;;;;12.00;9.43;;;;;;;;;;5037882;28;20088;-76
2022/06/27 00:57:14;;;;;;;14.50;10.45;;;;;;;;;;5038203;28;20137;-76
2022/06/27 00:59:41;;;;;;;15.23;11.75;;;;;;;;;;5055806;28;20128;-76
2022/06/27 01:02:07;;;;;;;14.57;11.98;;;;;;;;;;5037956;28;20049;-76
2022/06/27 01:04:35;;;;;;;18.63;11.02;;;;;;;;;;5037972;28;20049;-76
2022/06/27 01:07:01;;;;;;;11.43;9.73;;;;;;;;;;5038124;28;20373;-76
2022/06/27 01:09:27;;;;;;;17.83;10.52;;;;;;;;;;5055606;28;20043;-76
2022/06/27 01:11:53;;;;;;;12.77;10.10;;;;;;;;;;5037916;28;20131;-76
2022/06/27 01:14:19;;;;;;;12.38;10.82;;;;;;;;;;5038267;28;20055;-76
2022/06/27 01:16:46;;;;;;;13.73;11.02;;;;;;;;;;5055416;28;20106;-76
2022/06/27 01:19:13;;;;;;;11.40;9.10;;;;;;;;;;5055426;28;20049;-76
2022/06/27 01:21:49;;;;;;;11.73;10.40;;;;;;;;;;5037284;28;20063;-76
2022/06/27 01:24:15;;;;;;;13.35;10.52;;;;;;;;;;5055162;28;20114;-76
2022/06/27 01:26:43;;;;;;;11.82;10.57;;;;;;;;;;5055405;28;20041;-76
2022/06/27 01:29:09;;;;;;;14.73;11.07;;;;;;;;;;5055546;28;20049;-76
2022/06/27 01:31:35;;;;;;;14.15;11.85;;;;;;;;;;5020884;28;20052;-76
2022/06/27 01:34:01;;;;;;;16.25;11.75;;;;;;;;;;5055045;28;20041;-76
2022/06/27 01:36:42;;;;;;;16.00;11.20;;;;;;;;;;5037008;28;20040;-76
2022/06/27 01:39:14;;;;;;;13.30;10.32;;;;;;;;;;5055111;28;20631;-76
2022/06/27 01:41:41;;;;;;;15.68;12.27;;;;;;;;;;5020466;28;20419;-76
2022/06/27 01:44:08;;;;;;;12.30;11.07;;;;;;;;;;5055233;28;20070;-76
2022/06/27 01:46:41;;;;;;;14.95;11.68;;;;;;;;;;5054929;28;20049;-76
2022/06/27 01:49:07;;;;;;;14.48;10.00;;;;;;;;;;5035483;28;20503;-76
2022/06/27 01:51:34;;;;;;;11.77;10.27;;;;;;;;;;5024675;28;20095;-75
2022/06/27 01:54:00;;;;;;;11.50;10.30;;;;;;;;;;5054566;28;20057;-75
2022/06/27 01:56:26;;;;;;;15.13;12.35;;;;;;;;;;5054809;28;20045;-75
2022/06/27 01:58:57;;;;;;;17.10;13.07;;;;;;;;;;5036984;28;20094;-76
2022/06/27 02:01:23;;;;;;;14.70;12.50;;;;;;;;;;5042074;28;20459;-76
2022/06/27 02:03:49;;;;;;;19.42;13.15;;;;;;;;;;5035444;28;20075;-76
2022/06/27 02:06:15;;;;;;;14.52;11.45;;;;;;;;;;5035491;28;20040;-76
2022/06/27 02:08:41;;;;;;;14.68;11.15;;;;;;;;;;5035384;28;20049;-77
2022/06/27 02:11:08;;;;;;;16.42;13.63;;;;;;;;;;5035354;28;20386;-77
2022/06/27 02:13:34;;;;;;;15.43;12.30;;;;;;;;;;5048474;28;20048;-77
2022/06/27 02:16:06;;;;;;;17.20;13.25;;;;;;;;;;5054258;28;20045;-77
2022/06/27 02:18:32;;;;;;;14.68;11.68;;;;;;;;;;5054430;28;20080;-77
2022/06/27 02:20:58;;;;;;;13.35;11.30;;;;;;;;;;5055032;28;20122;-78
2022/06/27 02:23:24;;;;;;;13.45;11.30;;;;;;;;;;5037664;28;20132;-78
2022/06/27 02:25:51;;;;;;;14.02;11.02;;;;;;;;;;5056874;28;20099;-78
2022/06/27 02:28:20;;;;;;;16.05;13.65;;;;;;;;;;5033018;28;20092;-77
2022/06/27 02:30:46;;;;;;;16.80;12.65;;;;;;;;;;5054825;28;20488;-77
2022/06/27 02:33:13;;;;;;;14.00;11.75;;;;;;;;;;5055173;28;20048;-78
2022/06/27 02:35:39;;;;;;;13.95;11.43;;;;;;;;;;5054376;28;20041;-77
2022/06/27 02:38:07;;;;;;;19.08;15.43;;;;;;;;;;5036256;28;20052;-78
2022/06/27 02:40:33;;;;;;;15.13;12.50;;;;;;;;;;5053981;28;20404;-78
2022/06/27 02:42:59;;;;;;;13.38;11.82;;;;;;;;;;5052800;28;20041;-78
2022/06/27 02:45:29;;;;;;;14.13;11.57;;;;;;;;;;5034313;28;20515;-78
2022/06/27 02:47:57;;;;;;;16.13;12.30;;;;;;;;;;5034771;28;20056;-78
2022/06/27 02:50:25;;;;;;;18.67;13.27;;;;;;;;;;5033314;28;20041;-76
2022/06/27 02:52:53;;;;;;;14.18;11.80;;;;;;;;;;5015994;28;20057;-75
2022/06/27 02:55:22;;;;;;;13.65;11.65;;;;;;;;;;5034865;28;20053;-75
2022/06/27 02:57:51;;;;;;;12.45;11.02;;;;;;;;;;5033828;28;20059;-77
2022/06/27 03:00:18;;;;;;;13.35;11.32;;;;;;;;;;5053429;28;20519;-77
2022/06/27 03:02:44;;;;;;;16.00;12.38;;;;;;;;;;5053509;28;20452;-77
2022/06/27 03:05:10;;;;;;;15.90;12.82;;;;;;;;;;5053418;28;20056;-76
2022/06/27 03:07:37;;;;;;;14.90;12.73;;;;;;;;;;5053413;28;20049;-77
2022/06/27 03:10:04;;;;;;;18.27;13.43;;;;;;;;;;5035393;28;20045;-77
2022/06/27 03:12:30;;;;;;;13.02;11.35;;;;;;;;;;5053073;28;20056;-77
2022/06/27 03:14:56;;;;;;;17.02;13.82;;;;;;;;;;5053439;28;20381;-76
2022/06/27 03:17:22;;;;;;;15.25;12.73;;;;;;;;;;5053356;28;20041;-77
2022/06/27 03:19:50;;;;;;;13.73;10.32;;;;;;;;;;5053252;28;20048;-77
2022/06/27 03:22:16;;;;;;;11.13;9.60;;;;;;;;;;5053006;28;20481;-77
2022/06/27 03:24:42;;;;;;;11.55;10.00;;;;;;;;;;5052831;28;20399;-77
2022/06/27 03:27:10;;;;;;;11.63;9.38;;;;;;;;;;5052759;28;20048;-77
2022/06/27 03:29:36;;;;;;;11.05;8.07;;;;;;;;;;5053160;28;20049;-78
2022/06/27 03:32:02;;;;;;;12.45;10.45;;;;;;;;;;5052972;28;20098;-78
2022/06/27 03:34:28;;;;;;;11.23;8.70;;;;;;;;;;5034956;28;20052;-78
2022/06/27 03:36:54;;;;;;;12.40;9.85;;;;;;;;;;5051628;28;20048;-78
2022/06/27 03:39:20;;;;;;;10.80;8.30;;;;;;;;;;5033725;28;20057;-78
2022/06/27 03:41:46;;;;;;;11.32;8.93;;;;;;;;;;5015969;28;20056;-78
2022/06/27 03:44:12;;;;;;;10.88;8.63;;;;;;;;;;5033683;28;20045;-78
2022/06/27 03:46:38;;;;;;;8.27;7.47;;;;;;;;;;5033817;28;20052;-76
2022/06/27 03:51:49;;;;;;;8.88;7.97;;;;;;;;;;5033729;28;20455;-78
2022/06/27 03:54:15;;;;;;;11.18;8.57;;;;;;;;;;5033592;28;20144;-78
2022/06/27 03:56:41;;;;;;;9.57;7.70;;;;;;;;;;5033542;28;20042;-77
2022/06/27 03:59:07;;;;;;;12.10;9.50;;;;;;;;;;5015661;28;20125;-77
2022/06/27 04:01:33;;;;;;;9.32;8.30;;;;;;;;;;5047860;28;20083;-77
2022/06/27 04:03:59;;;;;;;9.07;7.43;;;;;;;;;;5034656;28;20080;-78
2022/06/27 04:06:25;;;;;;;10.20;8.68;;;;;;;;;;5034479;28;20041;-77
2022/06/27 04:08:51;;;;;;;10.88;8.02;;;;;;;;;;5052637;28;20411;-78
2022/06/27 04:11:17;;;;;;;17.15;12.00;;;;;;;;;;5052379;28;20488;-77
2022/06/27 04:13:43;;;;;;;11.35;10.13;;;;;;;;;;5052394;28;20069;-77
2022/06/27 04:16:09;;;;;;;8.32;7.47;;;;;;;;;;5034623;28;20131;-78
2022/06/27 04:18:35;;;;;;;11.73;9.20;;;;;;;;;;5039702;28;20382;-78
2022/06/27 04:21:02;;;;;;;11.80;8.73;;;;;;;;;;5015335;28;20045;-77
2022/06/27 04:23:28;;;;;;;10.00;8.77;;;;;;;;;;5032991;28;20042;-78
2022/06/27 04:25:54;;;;;;;11.15;9.45;;;;;;;;;;5046217;28;20045;-78
2022/06/27 04:28:20;;;;;;;11.15;9.82;;;;;;;;;;5018053;28;20086;-77
2022/06/27 04:30:47;;;;;;;10.43;8.75;;;;;;;;;;5033645;28;20081;-78
2022/06/27 04:33:13;;;;;;;30.67;14.43;;;;;;;;;;5015541;28;20049;-77
2022/06/27 04:35:45;;;;;;;18.50;11.43;;;;;;;;;;5032867;28;20049;-77
2022/06/27 04:38:12;;;;;;;14.18;9.85;;;;;;;;;;5031912;28;20373;-78
2022/06/27 04:40:43;;;;;;;45.40;18.77;;;;;;;;;;5032864;28;20095;-79
2022/06/27 04:43:10;;;;;;;15.82;9.65;;;;;;;;;;5032138;28;20042;-82
2022/06/27 04:45:36;;;;;;;12.90;9.10;;;;;;;;;;5031879;28;20410;-83
2022/06/27 04:48:04;;;;;;;16.05;9.98;;;;;;;;;;5051187;28;20050;-83
2022/06/27 04:50:32;;;;;;;13.07;10.00;;;;;;;;;;5046019;28;20682;-82
2022/06/27 04:53:01;;;;;;;16.27;9.07;;;;;;;;;;5052141;28;20115;-80
2022/06/27 04:55:28;;;;;;;15.73;11.07;;;;;;;;;;5033267;28;20049;-80
2022/06/27 04:57:55;;;;;;;12.57;10.18;;;;;;;;;;5032905;28;20049;-80
2022/06/27 05:00:23;;;;;;;11.82;9.07;;;;;;;;;;5015197;28;20053;-80
2022/06/27 05:02:49;;;;;;;14.95;10.10;;;;;;;;;;5021536;28;20072;-80
2022/06/27 05:05:16;;;;;;;11.63;7.65;;;;;;;;;;5052190;28;20045;-81
2022/06/27 05:07:45;;;;;;;10.00;7.70;;;;;;;;;;5038836;28;20048;-83
2022/06/27 05:10:11;;;;;;;;;;;;;;;;;;5052523;28;20513;-83
2022/06/27 05:12:37;;;;;;;6.40;5.80;;;;;;;;;;5039217;28;20064;-80
2022/06/27 05:15:03;;;;;;;6.45;5.85;;;;;;;;;;5032614;28;20045;-80
2022/06/27 05:17:32;;;;;;;7.72;5.82;;;;;;;;;;5035809;28;20404;-82
2022/06/27 05:19:58;;;;;;;8.23;6.25;;;;;;;;;;5036335;28;20056;-82
2022/06/27 05:22:24;;;;;;;6.63;5.28;;;;;;;;;;5036428;28;20037;-83
2022/06/27 05:24:50;;;;;;;6.63;5.03;;;;;;;;;;5036190;28;20183;-82
2022/06/27 05:27:17;;;;;;;8.82;5.60;;;;;;;;;;5036315;28;20128;-81
2022/06/27 05:29:43;;;;;;;13.80;7.40;;;;;;;;;;5018412;28;20059;-80
2022/06/27 05:32:10;;;;;;;8.32;6.25;;;;;;;;;;5035142;28;20047;-80
2022/06/27 05:34:36;;;;;;;11.90;6.85;;;;;;;;;;5054112;28;20053;-79
2022/06/27 05:37:18;;;;;;;9.88;5.85;;;;;;;;;;5055378;28;20047;-80
2022/06/27 05:39:46;;;;;;;12.43;6.97;;;;;;;;;;5052638;28;20452;-80
2022/06/27 05:42:22;;;;;;;34.50;12.98;;;;;;;;;;5054967;28;20408;-80
2022/06/27 05:44:48;;;;;;;7.53;6.38;;;;;;;;;;5055095;28;20041;-80
2022/06/27 05:47:15;;;;;;;11.40;6.95;;;;;;;;;;5054949;28;20048;-80
2022/06/27 05:49:42;;;;;;;13.15;6.82;;;;;;;;;;5054001;28;20045;-79
2022/06/27 05:52:09;;;;;;;12.48;7.20;;;;;;;;;;5036127;28;20049;-80
2022/06/27 05:54:35;;;;;;;13.38;7.05;;;;;;;;;;5015187;28;20535;-80
2022/06/27 05:57:02;;;;;;;10.32;6.55;;;;;;;;;;5032296;28;20045;-79
2022/06/27 05:59:29;;;;;;;8.43;6.57;;;;;;;;;;5034798;28;20457;-79
2022/06/27 06:01:56;;;;;;;7.57;5.38;;;;;;;;;;5037336;28;20511;-78
2022/06/27 06:04:23;;;;;;;8.70;5.32;;;;;;;;;;5021828;28;20049;-79
2022/06/27 06:06:49;;;;;;;11.70;6.82;;;;;;;;;;5016058;28;20042;-79
2022/06/27 06:09:16;;;;;;;8.70;5.20;;;;;;;;;;5015905;28;20453;-79
2022/06/27 06:11:42;;;;;;;6.53;4.53;;;;;;;;;;5015543;28;20077;-79
2022/06/27 06:14:21;;;;;;;8.18;5.05;;;;;;;;;;5015893;28;20046;-79
2022/06/27 06:16:47;;;;;;;;;;;;;;;;;;5015329;28;20065;-79
2022/06/27 06:19:13;;;;;;;14.10;6.00;;;;;;;;;;5019768;28;19996;-79
2022/06/27 06:21:40;;;;;;;6.90;4.18;;;;;;;;;;5015453;28;20081;-79
2022/06/27 06:24:06;;;;;;;5.82;4.05;;;;;;;;;;5019910;28;20073;-78
2022/06/27 06:26:33;;;;;;;6.53;4.65;;;;;;;;;;5020417;28;20045;-79
2022/06/27 06:29:05;;;;;;;8.77;4.72;;;;;;;;;;5018651;28;20045;-79
2022/06/27 06:31:32;;;;;;;12.13;4.32;;;;;;;;;;5019419;28;20045;-80
2022/06/27 06:33:58;;;;;;;5.18;3.72;;;;;;;;;;5018711;28;20045;-80
2022/06/27 06:36:24;;;;;;;4.75;4.15;;;;;;;;;;5020884;28;20124;-80
2022/06/27 06:38:51;;;;;;;11.77;5.53;;;;;;;;;;5017444;28;20054;-79
2022/06/27 06:41:18;;;;;;;11.75;5.50;;;;;;;;;;5019894;28;20099;-80
2022/06/27 06:43:45;;;;;;;5.22;4.43;;;;;;;;;;5016211;28;20038;-79
2022/06/27 06:46:12;;;;;;;21.58;9.55;;;;;;;;;;5019718;28;20046;-81
2022/06/27 06:48:40;;;;;;;7.85;4.38;;;;;;;;;;5023073;28;20095;-81
2022/06/27 06:51:07;;;;;;;11.65;5.72;;;;;;;;;;5020000;28;20398;-80
2022/06/27 06:53:35;;;;;;;4.28;3.55;;;;;;;;;;5030560;28;20049;-80
2022/06/27 06:56:03;;;;;;;8.07;3.47;;;;;;;;;;5036917;28;20049;-78
2022/06/27 06:58:29;;;;;;;4.90;3.95;;;;;;;;;;5038816;28;20183;-79
2022/06/27 07:00:56;;;;;;;5.32;3.70;;;;;;;;;;5003016;28;20050;-77
2022/06/27 07:03:22;;;;;;;5.53;3.55;;;;;;;;;;5040269;28;20041;-80
2022/06/27 07:05:49;;;;;;;5.47;3.60;;;;;;;;;;5044505;28;20119;-78
2022/06/27 07:08:16;;;;;;;3.90;3.50;;;;;;;;;;5019025;28;20055;-79
2022/06/27 07:10:42;;;;;;;8.02;4.40;;;;;;;;;;5038900;28;20508;-79
2022/06/27 07:13:08;;;;;;;5.43;3.70;;;;;;;;;;5004710;28;20045;-79
2022/06/27 07:15:35;;;;;;;4.38;3.67;;;;;;;;;;5042632;28;20515;-79
2022/06/27 07:18:02;;;;;;;4.85;3.42;;;;;;;;;;5040502;28;20041;-79
2022/06/27 07:20:30;;;;;;;4.13;3.33;;;;;;;;;;5039128;28;20045;-78
2022/06/27 07:22:57;;;;;;;3.40;3.10;;;;;;;;;;5040134;28;20088;-79
2022/06/27 07:25:25;;;;;;;4.35;3.55;;;;;;;;;;5039117;28;20099;-79
2022/06/27 07:27:55;;;;;;;4.15;3.38;;;;;;;;;;5008648;28;20045;-79
2022/06/27 07:30:22;;;;;;;4.30;3.75;;;;;;;;;;5040005;28;20049;-79
2022/06/27 07:32:48;;;;;;;6.40;3.95;;;;;;;;;;5039928;28;20041;-78
2022/06/27 07:35:16;;;;;;;5.18;4.10;;;;;;;;;;5023480;28;20088;-79
2022/06/27 07:37:48;;;;;;;7.40;4.90;;;;;;;;;;5039006;28;20492;-79
2022/06/27 07:40:15;;;;;;;6.35;5.13;;;;;;;;;;5039418;28;20511;-78
2022/06/27 07:42:41;;;;;;;6.60;5.43;;;;;;;;;;5038570;28;20094;-78
2022/06/27 07:45:08;;;;;;;6.32;5.10;;;;;;;;;;5016282;28;20102;-80
2022/06/27 07:47:35;;;;;;;8.65;5.20;;;;;;;;;;5033561;28;20127;-79
2022/06/27 07:50:01;;;;;;;6.55;5.05;;;;;;;;;;5033872;28;20057;-79
2022/06/27 07:52:27;;;;;;;10.70;5.25;;;;;;;;;;5033595;28;20052;-78
2022/06/27 07:54:54;;;;;;;5.43;4.68;;;;;;;;;;5033764;28;20045;-79
2022/06/27 07:57:21;;;;;;;5.78;4.43;;;;;;;;;;5033602;28;20120;-79
2022/06/27 07:59:51;;;;;;;14.45;6.05;;;;;;;;;;5019681;28;20488;-78
2022/06/27 08:02:17;;;;;;;5.25;4.75;;;;;;;;;;5052835;28;20404;-79
2022/06/27 08:04:44;;;;;;;10.18;5.70;;;;;;;;;;5034737;28;20052;-77
2022/06/27 08:07:10;;;;;;;5.32;4.32;;;;;;;;;;5034833;28;20049;-80
2022/06/27 08:09:38;;;;;;;9.55;5.38;;;;;;;;;;5032414;28;20049;-80
2022/06/27 08:12:04;;;;;;;12.70;6.68;;;;;;;;;;5035581;28;20046;-80
2022/06/27 08:14:30;;;;;;;13.48;6.35;;;;;;;;;;5038040;28;20259;-80
2022/06/27 08:16:57;;;;;;;18.85;7.65;;;;;;;;;;5038177;28;20096;-80
2022/06/27 08:19:23;;;;;;;6.97;4.60;;;;;;;;;;5041611;28;20045;-79
2022/06/27 08:21:49;;;;;;;5.32;4.38;;;;;;;;;;5040403;28;20554;-80
2022/06/27 08:24:18;;;;;;;5.63;3.92;;;;;;;;;;5035396;28;20095;-78
2022/06/27 08:26:46;;;;;;;5.30;3.88;;;;;;;;;;5039177;28;20034;-80
2022/06/27 08:29:12;;;;;;;5.57;4.13;;;;;;;;;;5039610;28;20052;-80
2022/06/27 08:31:39;;;;;;;4.85;4.35;;;;;;;;;;5036642;28;20045;-80
2022/06/27 08:34:06;;;;;;;30.75;11.80;;;;;;;;;;5038430;28;20073;-80
2022/06/27 08:36:33;;;;;;;8.65;4.63;;;;;;;;;;5038403;28;20045;-77
2022/06/27 08:39:01;;;;;;;12.60;5.47;;;;;;;;;;5020739;28;20412;-78
2022/06/27 08:41:28;;;;;;;6.80;4.75;;;;;;;;;;5004844;28;20041;-78
2022/06/27 08:43:55;;;;;;;5.32;4.32;;;;;;;;;;5038514;28;20179;-80
2022/06/27 08:46:22;;;;;;;6.00;4.88;;;;;;;;;;5038216;28;20451;-78
2022/06/27 08:48:50;;;;;;;9.35;5.03;;;;;;;;;;5042204;28;20052;-79
2022/06/27 08:51:16;;;;;;;12.45;5.97;;;;;;;;;;5039402;28;20045;-77
2022/06/27 08:53:43;;;;;;;5.70;4.68;;;;;;;;;;5039391;28;20054;-77
2022/06/27 08:56:16;;;;;;;5.55;4.88;;;;;;;;;;5041670;28;20049;-77
2022/06/27 08:58:46;;;;;;;6.00;5.03;;;;;;;;;;5042039;28;20044;-80
2022/06/27 09:01:13;;;;;;;7.45;4.40;;;;;;;;;;5045453;28;20050;-79
2022/06/27 09:03:39;;;;;;;5.82;5.20;;;;;;;;;;5038252;28;20037;-80
2022/06/27 09:06:07;;;;;;;5.80;4.68;;;;;;;;;;5039138;28;20572;-80
2022/06/27 09:08:36;;;;;;;5.85;5.28;;;;;;;;;;5043254;28;20112;-80
2022/06/27 09:11:03;;;;;;;8.25;5.90;;;;;;;;;;5044488;28;20087;-80
2022/06/27 09:13:30;;;;;;;15.70;7.63;;;;;;;;;;5045268;28;20124;-79
2022/06/27 09:16:00;;;;;;;6.28;5.63;;;;;;;;;;5034709;28;20080;-78
2022/06/27 09:18:31;;;;;;;7.90;6.07;;;;;;;;;;5047567;28;20083;-78
2022/06/27 09:20:59;;;;;;;9.10;5.32;;;;;;;;;;5045620;28;20045;-79
2022/06/27 09:23:31;;;;;;;5.57;5.03;;;;;;;;;;5043347;28;20033;-78
2022/06/27 09:26:01;;;;;;;6.60;4.80;;;;;;;;;;5047463;28;20079;-78
2022/06/27 09:28:39;;;;;;;5.78;4.68;;;;;;;;;;5030060;28;20142;-77
2022/06/27 09:31:06;;;;;;;;;;;;;;;;;;5042568;28;20038;-78
2022/06/27 09:33:32;;;;;;;5.53;4.25;;;;;;;;;;5027789;28;19970;-78
2022/06/27 09:35:58;;;;;;;6.30;4.82;;;;;;;;;;5028852;28;20080;-77
2022/06/27 09:38:25;;;;;;;5.95;4.80;;;;;;;;;;5037724;28;20056;-78
2022/06/27 09:40:51;;;;;;;12.95;6.47;;;;;;;;;;5037447;28;20099;-78
2022/06/27 09:43:22;;;;;;;9.80;5.30;;;;;;;;;;5036896;28;20129;-79
2022/06/27 09:45:48;;;;;;;9.20;5.38;;;;;;;;;;5018747;28;20477;-78
2022/06/27 09:48:17;;;;;;;5.57;4.85;;;;;;;;;;5035959;28;20098;-78
2022/06/27 09:50:44;;;;;;;6.38;5.25;;;;;;;;;;5050366;28;20080;-78
2022/06/27 09:53:10;;;;;;;6.43;5.28;;;;;;;;;;5054854;28;20064;-77
2022/06/27 09:55:37;;;;;;;8.77;5.68;;;;;;;;;;5055121;28;20045;-78
2022/06/27 09:58:06;;;;;;;7.07;5.60;;;;;;;;;;5053581;28;20041;-79
2022/06/27 10:00:32;;;;;;;8.57;5.55;;;;;;;;;;5035877;28;20081;-79
2022/06/27 10:02:59;;;;;;;7.25;5.40;;;;;;;;;;5041746;28;20038;-78
2022/06/27 10:05:26;;;;;;;8.00;5.30;;;;;;;;;;5038178;28;20041;-79
2022/06/27 10:07:54;;;;;;;6.50;5.75;;;;;;;;;;5041836;28;20053;-78
2022/06/27 10:10:20;;;;;;;8.23;6.10;;;;;;;;;;5034523;28;20124;-79
2022/06/27 10:12:57;;;;;;;16.38;8.50;;;;;;;;;;5041216;28;20044;-78
2022/06/27 10:15:25;;;;;;;6.13;5.53;;;;;;;;;;5043642;28;20048;-78
2022/06/27 10:17:52;;;;;;;8.10;6.22;;;;;;;;;;5042404;28;20081;-78
2022/06/27 10:20:21;;;;;;;8.45;6.63;;;;;;;;;;5040095;28;20042;-78
2022/06/27 10:23:07;;;;;;;6.95;6.25;;;;;;;;;;5037848;28;20037;-78
2022/06/27 10:25:34;;;;;;;6.78;6.18;;;;;;;;;;5011971;28;20403;-77
2022/06/27 10:28:10;;;;;;;7.82;7.03;;;;;;;;;;5042895;28;20519;-77
2022/06/27 10:30:46;;;;;;;6.75;6.05;;;;;;;;;;5045107;28;20045;-77
2022/06/27 10:33:18;;;;;;;9.18;7.65;;;;;;;;;;5043568;28;20091;-77
2022/06/27 10:35:57;;;;;;;8.18;7.28;;;;;;;;;;5045500;28;20084;-79
2022/06/27 10:38:24;;;;;;;7.75;7.05;;;;;;;;;;5044475;28;20092;-78
2022/06/27 10:40:51;;;;;;;7.68;6.90;;;;;;;;;;5038963;28;20045;-78
2022/06/27 10:43:36;;;;;;;9.15;7.07;;;;;;;;;;5046870;28;20059;-76
2022/06/27 10:46:22;;;;;;;8.52;7.72;;;;;;;;;;5036945;28;20052;-79
2022/06/27 10:48:48;;;;;;;7.88;7.18;;;;;;;;;;5038817;28;20041;-79
2022/06/27 10:51:21;;;;;;;8.35;7.53;;;;;;;;;;5037868;28;20061;-79
2022/06/27 10:53:51;;;;;;;7.68;6.93;;;;;;;;;;5037982;28;20381;-76
2022/06/27 10:56:29;;;;;;;8.32;7.53;;;;;;;;;;5037062;28;20045;-77
2022/06/27 10:58:55;;;;;;;9.48;6.90;;;;;;;;;;5040850;28;20120;-79
2022/06/27 11:01:22;;;;;;;8.00;7.28;;;;;;;;;;5039276;28;20531;-77
2022/06/27 11:03:48;;;;;;;8.95;7.90;;;;;;;;;;5037638;28;20038;-76
2022/06/27 11:06:15;;;;;;;7.07;6.38;;;;;;;;;;5037647;28;20477;-75
2022/06/27 11:08:42;;;;;;;9.50;7.22;;;;;;;;;;5036633;28;20103;-77
2022/06/27 11:11:08;;;;;;;7.68;6.93;;;;;;;;;;5054390;28;20056;-77
2022/06/27 11:14:47;;;;;;;;;;;;;;;;;;;;;
2022/06/27 11:16:50;;;;;;;7.00;6.25;;;;;;;;;;5043504;28;20056;-77
2022/06/27 11:22:18;;;;;;;6.93;5.60;;;;;;;;;;5053838;28;20080;-77
2022/06/27 11:24:44;;;;;;;;;;;;;;;;;;5000867;28;20493;-78
2022/06/27 11:27:10;;;;;;;7.43;6.45;;;;;;;;;;5053888;28;19928;-77
2022/06/27 11:32:21;;;;;;;7.18;5.80;;;;;;;;;;5053760;28;20052;-77
2022/06/27 11:34:51;;;;;;;8.35;5.85;;;;;;;;;;5036178;28;20044;-77
2022/06/27 11:37:18;;;;;;;8.73;5.90;;;;;;;;;;5054370;28;20048;-77
2022/06/27 11:40:01;;;;;;;6.30;5.53;;;;;;;;;;5050893;28;20061;-77
2022/06/27 11:42:31;;;;;;;5.50;5.00;;;;;;;;;;5034419;28;20052;-78
2022/06/27 11:45:06;;;;;;;7.13;6.20;;;;;;;;;;5022324;28;20045;-77
2022/06/27 11:47:38;;;;;;;5.78;5.28;;;;;;;;;;5043790;28;20048;-76
2022/06/27 11:50:05;;;;;;;6.03;5.40;;;;;;;;;;5039571;28;20052;-76
2022/06/27 11:52:38;;;;;;;7.70;6.05;;;;;;;;;;5053364;28;20053;-75
2022/06/27 11:55:11;;;;;;;7.43;5.30;;;;;;;;;;5041776;28;20052;-78
2022/06/27 11:57:37;;;;;;;6.15;5.55;;;;;;;;;;5042921;28;20037;-76
2022/06/27 12:00:06;;;;;;;5.57;4.60;;;;;;;;;;5037574;28;20171;-77
2022/06/27 12:02:37;;;;;;;6.50;4.70;;;;;;;;;;5033512;28;20049;-78
2022/06/27 12:05:17;;;;;;;7.30;5.20;;;;;;;;;;5032521;28;20063;-78
2022/06/27 12:07:54;;;;;;;5.43;4.78;;;;;;;;;;5032346;28;20128;-79
2022/06/27 12:11:17;;;;;;;5.22;4.32;;;;;;;;;;5015764;28;20053;-78
2022/06/27 12:13:32;;;;;;;6.30;4.22;;;;;;;;;;5050494;28;20053;-78
2022/06/27 12:16:00;;;;;;;3.67;3.35;;;;;;;;;;5034923;28;20036;-78
2022/06/27 12:18:33;;;;;;;4.17;3.77;;;;;;;;;;5052491;28;20068;-78
2022/06/27 12:20:59;;;;;;;4.13;3.72;;;;;;;;;;5034789;28;20120;-76
2022/06/27 12:23:25;;;;;;;4.53;3.63;;;;;;;;;;5052303;28;20048;-77
2022/06/27 12:25:51;;;;;;;4.13;3.72;;;;;;;;;;5053454;28;20068;-77
2022/06/27 12:28:18;;;;;;;4.47;4.05;;;;;;;;;;5056656;28;20377;-77
2022/06/27 12:30:44;;;;;;;4.85;3.90;;;;;;;;;;5056422;28;20044;-78
2022/06/27 12:33:10;;;;;;;4.07;3.70;;;;;;;;;;5056660;28;20112;-78
2022/06/27 12:35:36;;;;;;;3.75;3.33;;;;;;;;;;5056762;28;20111;-78
2022/06/27 12:38:03;;;;;;;3.67;3.13;;;;;;;;;;5046553;28;20049;-77
2022/06/27 12:40:30;;;;;;;3.88;2.90;;;;;;;;;;5019579;28;20077;-77
2022/06/27 12:42:56;;;;;;;3.53;3.03;;;;;;;;;;5037294;28;20045;-77
2022/06/27 12:45:22;;;;;;;4.72;3.00;;;;;;;;;;5037189;28;20559;-77
2022/06/27 12:47:48;;;;;;;4.00;3.15;;;;;;;;;;5037819;28;20077;-77
2022/06/27 12:50:16;;;;;;;3.17;2.80;;;;;;;;;;5021957;28;20084;-80
2022/06/27 12:52:42;;;;;;;4.43;3.20;;;;;;;;;;5050084;28;20651;-80
2022/06/27 12:55:08;;;;;;;3.20;2.90;;;;;;;;;;5038737;28;20348;-79
2022/06/27 12:57:34;;;;;;;3.75;2.97;;;;;;;;;;5036202;28;20057;-79
2022/06/27 13:00:01;;;;;;;4.43;3.25;;;;;;;;;;5036793;28;20045;-79
2022/06/27 13:02:27;;;;;;;4.32;3.33;;;;;;;;;;5036859;28;20052;-79
2022/06/27 13:04:53;;;;;;;4.15;3.20;;;;;;;;;;5036993;28;20048;-78
2022/06/27 13:07:19;;;;;;;3.70;3.15;;;;;;;;;;5036833;28;20055;-79
2022/06/27 13:09:45;;;;;;;3.30;3.00;;;;;;;;;;5036784;28;20049;-78
2022/06/27 13:12:11;;;;;;;2.83;2.60;;;;;;;;;;5036628;28;20084;-78
2022/06/27 13:14:38;;;;;;;3.25;2.92;;;;;;;;;;5036444;28;20042;-78
2022/06/27 13:17:04;;;;;;;3.45;2.85;;;;;;;;;;5036839;28;20041;-78
2022/06/27 13:19:30;;;;;;;4.82;2.40;;;;;;;;;;5036662;28;20045;-78
2022/06/27 13:21:57;;;;;;;5.95;3.50;;;;;;;;;;5036427;28;20504;-78
2022/06/27 13:24:23;;;;;;;12.23;5.88;;;;;;;;;;5049947;28;20120;-78
2022/06/27 13:26:49;;;;;;;4.40;2.88;;;;;;;;;;5055545;28;20045;-77
2022/06/27 13:29:15;;;;;;;7.53;4.22;;;;;;;;;;5055383;28;20063;-78
2022/06/27 13:31:44;;;;;;;3.92;2.88;;;;;;;;;;5037858;28;20101;-78
2022/06/27 13:34:10;;;;;;;;;;;;;;;;;;5049837;28;20534;-79
2022/06/27 13:36:36;;;;;;;5.05;3.33;;;;;;;;;;5055130;28;19928;-80
2022/06/27 13:39:03;;;;;;;6.32;4.63;;;;;;;;;;5036153;28;20042;-79
2022/06/27 13:41:29;;;;;;;6.65;4.03;;;;;;;;;;5055099;28;20399;-79
2022/06/27 13:43:55;;;;;;;8.93;3.00;;;;;;;;;;5047913;28;20472;-78
2022/06/27 13:46:21;;;;;;;6.53;3.72;;;;;;;;;;5037071;28;20044;-80
2022/06/27 13:48:47;;;;;;;20.70;7.28;;;;;;;;;;5054996;28;20124;-79
2022/06/27 13:51:13;;;;;;;14.05;6.07;;;;;;;;;;5020964;28;20404;-79
2022/06/27 13:53:39;;;;;;;11.52;5.40;;;;;;;;;;5054721;28;20049;-79
2022/06/27 13:56:06;;;;;;;21.05;8.35;;;;;;;;;;5054812;28;20049;-79
2022/06/27 13:58:33;;;;;;;12.98;5.72;;;;;;;;;;5037289;28;20040;-79
2022/06/27 14:00:59;;;;;;;6.23;3.50;;;;;;;;;;5055042;28;20049;-79
2022/06/27 14:03:25;;;;;;;16.38;8.10;;;;;;;;;;5047679;28;20060;-79
2022/06/27 14:05:51;;;;;;;16.13;7.50;;;;;;;;;;5037076;28;20052;-79
2022/06/27 14:08:17;;;;;;;37.40;13.32;;;;;;;;;;5036933;28;20048;-79
2022/06/27 14:10:56;;;;;;;17.75;6.97;;;;;;;;;;5054653;28;20052;-79
2022/06/27 14:13:22;;;;;;;12.48;6.10;;;;;;;;;;5054936;28;20404;-79
2022/06/27 14:15:48;;;;;;;7.93;3.88;;;;;;;;;;5054353;28;20404;-78
2022/06/27 14:18:14;;;;;;;4.00;2.83;;;;;;;;;;5052539;28;20076;-77
2022/06/27 14:20:40;;;;;;;3.13;2.88;;;;;;;;;;5040150;28;20488;-78
2022/06/27 14:23:06;;;;;;;8.38;4.78;;;;;;;;;;5018204;28;20046;-78
2022/06/27 14:25:32;;;;;;;4.65;3.40;;;;;;;;;;5040024;28;20041;-78
2022/06/27 14:27:58;;;;;;;18.85;8.27;;;;;;;;;;5043885;28;20086;-78
2022/06/27 14:30:25;;;;;;;43.92;15.40;;;;;;;;;;5037730;28;20041;-77
2022/06/27 14:32:51;;;;;;;10.02;5.35;;;;;;;;;;5043778;28;20407;-77
2022/06/27 14:35:17;;;;;;;6.95;3.70;;;;;;;;;;5007296;28;20053;-77
2022/06/27 14:37:43;;;;;;;13.93;6.85;;;;;;;;;;5039866;28;20033;-77
2022/06/27 14:40:10;;;;;;;5.43;3.63;;;;;;;;;;5037274;28;20120;-77
2022/06/27 14:42:36;;;;;;;17.33;15.20;;;;;;;;;;5037172;28;20516;-78
2022/06/27 14:45:03;;;;;;;7.80;6.60;;;;;;;;;;5041340;28;20037;-78
2022/06/27 14:47:29;;;;;;;7.60;5.22;;;;;;;;;;5024991;28;20048;-77